Time;durP1;ratioP1;P1;durP2;ratioP2;P2;SDS_P1;SDS_P2;PMS_P1;PMS_P2;Temp;Humidity;BMP_temperature;BMP_pressure;BME280_temperature;BME280_humidity;BME280_pressure;Samples;Min_cycle;Max_cycle;Signal;HPM_P1;HPM_P2
2022/11/20 00:01:22;;;;;;;16.02;12.15;;;4.40;99.90;;;;;;5035780;28;20255;-78
2022/11/20 00:03:53;;;;;;;19.23;14.13;;;4.40;99.90;;;;;;5034932;28;20240;-77
2022/11/20 00:06:21;;;;;;;30.38;19.27;;;4.40;99.90;;;;;;5034902;28;20300;-78
2022/11/20 00:08:49;;;;;;;22.67;16.45;;;4.40;99.90;;;;;;5034741;28;20667;-77
2022/11/20 00:11:18;;;;;;;24.15;17.85;;;4.40;99.90;;;;;;5035688;28;20257;-81
2022/11/20 00:13:46;;;;;;;15.02;11.45;;;4.40;99.90;;;;;;5035386;28;20225;-78
2022/11/20 00:16:15;;;;;;;13.45;11.80;;;4.40;99.90;;;;;;5034979;28;20291;-81
2022/11/20 00:18:48;;;;;;;14.70;11.13;;;4.40;99.90;;;;;;5034526;28;20253;-81
2022/11/20 00:21:18;;;;;;;17.70;13.20;;;4.40;99.90;;;;;;5034365;28;20213;-78
2022/11/20 00:23:46;;;;;;;22.95;14.15;;;4.40;99.90;;;;;;5034908;28;20348;-81
2022/11/20 00:26:15;;;;;;;20.50;13.27;;;4.40;99.90;;;;;;5034709;28;20231;-77
2022/11/20 00:28:44;;;;;;;14.02;11.57;;;4.40;99.90;;;;;;5034708;28;20253;-81
2022/11/20 00:31:14;;;;;;;16.83;11.52;;;4.40;99.90;;;;;;5034095;28;20225;-76
2022/11/20 00:33:42;;;;;;;16.45;14.75;;;4.40;99.90;;;;;;5035031;28;20308;-81
2022/11/20 00:36:11;;;;;;;16.65;12.93;;;4.40;99.90;;;;;;5034252;28;20222;-77
2022/11/20 00:38:40;;;;;;;20.08;14.45;;;4.40;99.90;;;;;;5024689;28;20303;-76
2022/11/20 00:41:10;;;;;;;16.77;13.20;;;4.40;99.90;;;;;;5033787;28;20256;-80
2022/11/20 00:43:37;;;;;;;13.50;11.00;;;4.40;99.90;;;;;;5034497;28;20221;-77
2022/11/20 00:46:06;;;;;;;15.90;13.48;;;4.40;99.90;;;;;;5034003;28;20230;-77
2022/11/20 00:48:34;;;;;;;13.77;11.63;;;4.40;99.90;;;;;;5034828;28;20229;-76
2022/11/20 00:51:01;;;;;;;16.88;10.98;;;4.40;99.90;;;;;;5033628;28;20225;-77
2022/11/20 00:53:28;;;;;;;16.10;12.73;;;4.40;99.90;;;;;;5036546;28;20722;-77
2022/11/20 00:55:59;;;;;;;14.50;11.70;;;4.40;99.90;;;;;;5035445;28;20221;-77
2022/11/20 00:58:31;;;;;;;21.63;16.65;;;4.40;99.90;;;;;;5034853;28;20225;-77
2022/11/20 01:01:02;;;;;;;14.63;11.85;;;4.40;99.90;;;;;;5033995;28;20312;-76
2022/11/20 01:03:31;;;;;;;14.50;11.38;;;4.40;99.90;;;;;;5032674;28;20221;-77
2022/11/20 01:06:01;;;;;;;14.07;12.15;;;4.40;99.90;;;;;;5034884;28;20225;-76
2022/11/20 01:08:31;;;;;;;19.40;14.20;;;4.40;99.90;;;;;;5033344;28;20255;-77
2022/11/20 01:11:02;;;;;;;19.33;14.35;;;4.40;99.90;;;;;;5034188;28;20659;-76
2022/11/20 01:13:39;;;;;;;19.30;15.50;;;4.40;99.90;;;;;;5034305;28;20225;-77
2022/11/20 01:16:07;;;;;;;16.02;13.25;;;4.50;99.90;;;;;;5035584;28;20737;-80
2022/11/20 01:18:34;;;;;;;14.38;12.73;;;4.40;99.90;;;;;;5034706;28;20225;-76
2022/11/20 01:21:03;;;;;;;15.13;11.75;;;4.50;99.90;;;;;;5034026;28;20236;-76
2022/11/20 01:23:32;;;;;;;16.80;12.40;;;4.40;99.90;;;;;;5033311;28;20235;-76
2022/11/20 01:26:03;;;;;;;16.98;12.70;;;4.40;99.90;;;;;;5034661;28;20227;-81
2022/11/20 01:28:31;;;;;;;14.18;11.65;;;4.40;99.90;;;;;;5033446;28;20776;-76
2022/11/20 01:30:58;;;;;;;14.48;12.05;;;4.40;99.90;;;;;;5033877;28;20287;-81
2022/11/20 01:33:25;;;;;;;12.85;11.18;;;4.40;99.90;;;;;;5032665;28;20325;-76
2022/11/20 01:35:52;;;;;;;16.73;13.23;;;4.40;99.90;;;;;;5033649;28;20742;-81
2022/11/20 01:38:22;;;;;;;14.30;11.35;;;4.40;99.90;;;;;;5032794;28;20225;-80
2022/11/20 01:40:58;;;;;;;16.90;12.35;;;4.40;99.90;;;;;;5033341;28;20222;-81
2022/11/20 01:43:26;;;;;;;15.85;12.25;;;4.40;99.90;;;;;;5031117;28;20236;-77
2022/11/20 01:46:05;;;;;;;16.02;11.95;;;4.40;99.90;;;;;;5032871;28;20229;-81
2022/11/20 01:48:41;;;;;;;15.65;11.73;;;4.40;99.90;;;;;;5032969;28;20252;-81
2022/11/20 01:51:17;;;;;;;16.48;12.02;;;4.40;99.90;;;;;;5033492;28;20274;-80
2022/11/20 01:53:45;;;;;;;17.23;12.52;;;4.40;99.90;;;;;;5033002;28;20225;-80
2022/11/20 01:56:14;;;;;;;15.98;12.05;;;4.40;99.90;;;;;;5032522;28;20222;-76
2022/11/20 01:58:47;;;;;;;17.27;13.15;;;4.40;99.90;;;;;;5032248;28;20299;-81
2022/11/20 02:01:14;;;;;;;15.82;14.07;;;4.40;99.90;;;;;;5033283;28;20233;-76
2022/11/20 02:03:46;;;;;;;15.52;11.68;;;4.40;99.90;;;;;;5032348;28;20217;-76
2022/11/20 02:06:19;;;;;;;23.50;14.93;;;4.40;99.90;;;;;;5033524;28;20221;-81
2022/11/20 02:08:46;;;;;;;16.80;14.55;;;4.40;99.90;;;;;;5032843;28;20256;-78
2022/11/20 02:11:13;;;;;;;14.40;12.90;;;4.40;99.90;;;;;;5033001;28;20244;-76
2022/11/20 02:13:44;;;;;;;14.80;12.10;;;4.40;99.90;;;;;;5032576;28;20637;-81
2022/11/20 02:16:21;;;;;;;14.60;11.88;;;4.40;99.90;;;;;;5033129;28;20274;-77
2022/11/20 02:18:48;;;;;;;17.98;13.25;;;4.40;99.90;;;;;;5033235;28;20657;-81
2022/11/20 02:21:25;;;;;;;18.20;14.15;;;4.40;99.90;;;;;;5023161;28;20229;-81
2022/11/20 02:24:13;;;;;;;14.18;10.63;;;4.40;99.90;;;;;;5033072;28;20217;-81
2022/11/20 02:26:46;;;;;;;12.85;11.25;;;4.40;99.90;;;;;;5032423;28;20239;-76
2022/11/20 02:29:16;;;;;;;14.93;11.45;;;4.40;99.90;;;;;;5032329;28;20284;-77
2022/11/20 02:31:45;;;;;;;12.35;10.90;;;4.40;99.90;;;;;;5032242;28;20524;-77
2022/11/20 02:34:12;;;;;;;12.65;11.30;;;4.40;99.90;;;;;;5032668;28;20279;-81
2022/11/20 02:36:42;;;;;;;15.90;12.20;;;4.40;99.90;;;;;;5031804;28;20252;-80
2022/11/20 02:39:16;;;;;;;14.60;12.77;;;4.40;99.90;;;;;;5032331;28;20229;-77
2022/11/20 02:41:44;;;;;;;17.55;11.88;;;4.40;99.90;;;;;;5032543;28;20233;-80
2022/11/20 02:44:11;;;;;;;17.05;11.75;;;4.40;99.90;;;;;;5032940;28;20225;-81
2022/11/20 02:46:38;;;;;;;19.13;11.80;;;4.40;99.90;;;;;;5032540;28;20252;-76
2022/11/20 02:49:06;;;;;;;13.50;11.18;;;4.30;99.90;;;;;;5032605;28;20307;-80
2022/11/20 02:51:33;;;;;;;11.95;10.27;;;4.30;99.90;;;;;;5032706;28;20374;-80
2022/11/20 02:54:00;;;;;;;14.93;12.52;;;4.30;99.90;;;;;;5032640;28;20232;-77
2022/11/20 02:56:29;;;;;;;17.27;13.35;;;4.30;99.90;;;;;;5032996;28;20268;-81
2022/11/20 02:58:56;;;;;;;15.88;12.57;;;4.30;99.90;;;;;;5032213;28;20241;-80
2022/11/20 03:01:24;;;;;;;13.27;10.95;;;4.30;99.90;;;;;;5032959;28;20229;-80
2022/11/20 03:03:52;;;;;;;17.05;13.05;;;4.40;99.90;;;;;;5023141;28;20687;-76
2022/11/20 03:06:19;;;;;;;13.88;12.10;;;4.40;99.90;;;;;;5032620;28;20307;-80
2022/11/20 03:08:46;;;;;;;16.25;13.35;;;4.30;99.90;;;;;;5031911;28;20253;-77
2022/11/20 03:11:14;;;;;;;14.52;12.57;;;4.30;99.90;;;;;;5032806;28;20233;-81
2022/11/20 03:13:42;;;;;;;15.35;13.32;;;4.40;99.90;;;;;;5032440;28;20624;-81
2022/11/20 03:16:11;;;;;;;21.63;15.07;;;4.30;99.90;;;;;;5032308;28;20283;-81
2022/11/20 03:18:39;;;;;;;16.55;12.90;;;4.30;99.90;;;;;;5030784;28;20240;-77
2022/11/20 03:21:06;;;;;;;17.85;14.10;;;4.30;99.90;;;;;;5032603;28;20308;-76
2022/11/20 03:23:34;;;;;;;17.60;13.23;;;4.40;99.90;;;;;;5033111;28;20328;-76
2022/11/20 03:26:15;;;;;;;21.00;16.70;;;4.40;99.90;;;;;;5034884;28;20221;-80
2022/11/20 03:28:46;;;;;;;17.92;14.02;;;4.30;99.90;;;;;;5035403;28;20241;-77
2022/11/20 03:31:15;;;;;;;20.75;15.98;;;4.30;99.90;;;;;;5035965;28;20229;-77
2022/11/20 03:33:43;;;;;;;21.13;14.90;;;4.30;99.90;;;;;;5035261;28;20659;-78
2022/11/20 03:36:13;;;;;;;17.13;14.13;;;4.30;99.90;;;;;;5034920;28;20245;-77
2022/11/20 03:38:41;;;;;;;19.42;15.57;;;4.30;99.90;;;;;;5035168;28;20313;-77
2022/11/20 03:41:09;;;;;;;20.88;16.20;;;4.30;99.90;;;;;;5035916;28;20339;-81
2022/11/20 03:43:38;;;;;;;20.95;14.43;;;4.30;99.90;;;;;;5035769;28;20225;-81
2022/11/20 03:46:07;;;;;;;19.42;15.52;;;4.30;99.90;;;;;;5034835;28;20237;-76
2022/11/20 03:48:35;;;;;;;17.20;14.48;;;4.30;99.90;;;;;;5035271;28;20655;-76
2022/11/20 03:51:12;;;;;;;19.55;15.18;;;4.30;99.90;;;;;;5035062;28;20594;-80
2022/11/20 03:53:39;;;;;;;18.05;14.98;;;4.30;99.90;;;;;;5035725;28;20327;-76
2022/11/20 03:56:08;;;;;;;19.52;15.30;;;4.30;99.90;;;;;;5035185;28;20228;-80
2022/11/20 03:58:36;;;;;;;18.95;15.55;;;4.30;99.90;;;;;;5033155;28;20321;-76
2022/11/20 04:01:09;;;;;;;18.88;15.70;;;4.30;99.90;;;;;;5034703;28;20229;-76
2022/11/20 04:03:36;;;;;;;17.02;13.35;;;4.30;99.90;;;;;;5034471;28;20225;-76
2022/11/20 04:06:05;;;;;;;18.58;13.30;;;4.30;99.90;;;;;;5034005;28;21225;-80
2022/11/20 04:08:32;;;;;;;17.17;13.55;;;4.30;99.90;;;;;;5035534;28;20226;-80
2022/11/20 04:11:10;;;;;;;18.92;16.02;;;4.30;99.90;;;;;;5035165;28;20244;-76
2022/11/20 04:13:37;;;;;;;14.18;12.65;;;4.30;99.90;;;;;;5034986;28;20229;-76
2022/11/20 04:16:05;;;;;;;17.63;14.57;;;4.30;99.90;;;;;;5034375;28;20823;-80
2022/11/20 04:18:37;;;;;;;15.02;12.88;;;4.30;99.90;;;;;;5035084;28;20234;-80
2022/11/20 04:21:06;;;;;;;15.45;12.80;;;4.20;99.90;;;;;;5034567;28;20675;-81
2022/11/20 04:23:33;;;;;;;16.13;13.50;;;4.20;99.90;;;;;;5034767;28;20543;-80
2022/11/20 04:26:05;;;;;;;16.92;13.63;;;4.20;99.90;;;;;;5033984;28;20240;-76
2022/11/20 04:28:32;;;;;;;14.25;11.63;;;4.20;99.90;;;;;;5035044;28;20225;-81
2022/11/20 04:31:07;;;;;;;18.20;13.45;;;4.20;99.90;;;;;;5034373;28;20616;-80
2022/11/20 04:33:34;;;;;;;16.73;12.88;;;4.10;99.90;;;;;;5034479;28;20225;-80
2022/11/20 04:36:05;;;;;;;15.45;12.55;;;4.00;99.90;;;;;;5034043;28;20286;-80
2022/11/20 04:38:32;;;;;;;14.25;12.68;;;4.10;99.90;;;;;;5034818;28;20225;-76
2022/11/20 04:41:00;;;;;;;18.48;12.77;;;4.10;99.90;;;;;;5033921;28;20226;-81
2022/11/20 04:43:28;;;;;;;16.80;13.10;;;4.00;99.90;;;;;;5033119;28;20222;-80
2022/11/20 04:45:56;;;;;;;14.68;11.95;;;4.10;99.90;;;;;;5034135;28;20279;-81
2022/11/20 04:48:24;;;;;;;16.42;13.13;;;4.10;99.90;;;;;;5034417;28;20222;-77
2022/11/20 04:50:51;;;;;;;17.40;12.82;;;4.10;99.90;;;;;;5033864;28;20283;-80
2022/11/20 04:53:20;;;;;;;14.25;12.55;;;4.10;99.90;;;;;;5034503;28;20221;-81
2022/11/20 04:55:47;;;;;;;19.85;13.60;;;4.10;99.90;;;;;;5033583;28;20221;-81
2022/11/20 04:58:14;;;;;;;14.02;12.13;;;4.10;99.90;;;;;;5033462;28;20343;-81
2022/11/20 05:00:42;;;;;;;17.33;13.52;;;4.10;99.90;;;;;;5034453;28;20226;-81
2022/11/20 05:03:08;;;;;;;12.85;11.20;;;4.10;99.90;;;;;;5032698;28;20236;-81
2022/11/20 05:05:38;;;;;;;16.20;13.77;;;4.10;99.90;;;;;;5034346;28;20248;-77
2022/11/20 05:08:06;;;;;;;15.45;12.25;;;4.10;99.90;;;;;;5032980;28;20225;-77
2022/11/20 05:10:34;;;;;;;15.80;11.52;;;4.10;99.90;;;;;;5033979;28;20284;-77
2022/11/20 05:13:01;;;;;;;17.58;13.27;;;4.10;99.90;;;;;;5033650;28;20520;-81
2022/11/20 05:15:28;;;;;;;16.50;12.73;;;4.10;99.90;;;;;;5033888;28;20252;-81
2022/11/20 05:17:55;;;;;;;14.57;12.48;;;4.20;99.90;;;;;;5033514;28;20688;-82
2022/11/20 05:20:22;;;;;;;16.20;12.18;;;4.10;99.90;;;;;;5034260;28;20237;-82
2022/11/20 05:22:49;;;;;;;14.85;12.10;;;4.20;99.90;;;;;;5033983;28;20302;-78
2022/11/20 05:25:16;;;;;;;16.30;12.88;;;4.20;99.90;;;;;;5033413;28;20324;-82
2022/11/20 05:27:45;;;;;;;18.73;12.43;;;4.10;99.90;;;;;;5034069;28;20225;-78
2022/11/20 05:30:14;;;;;;;15.95;12.75;;;4.20;99.90;;;;;;5032374;28;20567;-78
2022/11/20 05:32:40;;;;;;;19.10;14.77;;;4.20;99.90;;;;;;5033641;28;20229;-82
2022/11/20 05:35:08;;;;;;;14.15;12.02;;;4.20;99.90;;;;;;5033214;28;20309;-82
2022/11/20 05:37:35;;;;;;;17.25;14.00;;;4.20;99.90;;;;;;5033549;28;20252;-81
2022/11/20 05:40:02;;;;;;;19.25;14.25;;;4.30;99.90;;;;;;5032757;28;20252;-78
2022/11/20 05:42:31;;;;;;;16.70;14.52;;;4.20;99.90;;;;;;5033540;28;20300;-78
2022/11/20 05:45:00;;;;;;;18.88;13.90;;;4.30;99.90;;;;;;5032621;28;20291;-79
2022/11/20 05:47:28;;;;;;;14.18;12.68;;;4.30;99.90;;;;;;5033833;28;20229;-78
2022/11/20 05:49:58;;;;;;;17.45;13.82;;;4.30;99.90;;;;;;5033430;28;20312;-76
2022/11/20 05:52:26;;;;;;;18.95;15.15;;;4.30;99.90;;;;;;5032998;28;20281;-77
2022/11/20 05:54:53;;;;;;;19.17;15.82;;;4.30;99.90;;;;;;5032517;28;20254;-78
2022/11/20 05:57:20;;;;;;;17.15;14.00;;;4.30;99.90;;;;;;5032698;28;20233;-78
2022/11/20 05:59:47;;;;;;;17.92;13.98;;;4.30;99.90;;;;;;5032778;28;20287;-78
2022/11/20 06:02:15;;;;;;;19.50;14.45;;;4.30;99.90;;;;;;5032723;28;20225;-82
2022/11/20 06:04:42;;;;;;;15.43;12.45;;;4.30;99.90;;;;;;5033862;28;20225;-78
2022/11/20 06:07:09;;;;;;;17.65;13.35;;;4.30;99.90;;;;;;5032876;28;20538;-81
2022/11/20 06:09:36;;;;;;;14.38;11.75;;;4.30;99.90;;;;;;5033473;28;20233;-81
2022/11/20 06:12:03;;;;;;;14.60;12.15;;;4.40;99.90;;;;;;5032857;28;20699;-81
2022/11/20 06:14:30;;;;;;;16.13;12.68;;;4.40;99.90;;;;;;5033340;28;20682;-76
2022/11/20 06:16:57;;;;;;;14.75;12.23;;;4.40;99.90;;;;;;5033167;28;20293;-76
2022/11/20 06:19:26;;;;;;;16.35;12.35;;;4.40;99.90;;;;;;5032547;28;20236;-76
2022/11/20 06:21:53;;;;;;;15.65;13.90;;;4.40;99.90;;;;;;5033211;28;20229;-77
2022/11/20 06:24:20;;;;;;;16.33;12.48;;;4.40;99.90;;;;;;5031151;28;20217;-77
2022/11/20 06:26:47;;;;;;;16.20;12.07;;;4.40;99.90;;;;;;5033088;28;20221;-76
2022/11/20 06:29:14;;;;;;;14.45;11.75;;;4.30;99.90;;;;;;5032349;28;20225;-81
2022/11/20 06:31:42;;;;;;;18.30;13.68;;;4.40;99.90;;;;;;5033312;28;20231;-81
2022/11/20 06:34:09;;;;;;;15.40;12.63;;;4.40;99.90;;;;;;5032301;28;20225;-77
2022/11/20 06:36:38;;;;;;;19.75;14.32;;;4.40;99.90;;;;;;5032980;28;20225;-81
2022/11/20 06:39:05;;;;;;;24.40;17.33;;;4.40;99.90;;;;;;5032892;28;20252;-77
2022/11/20 06:41:32;;;;;;;16.92;13.15;;;4.30;99.90;;;;;;5032175;28;20225;-77
2022/11/20 06:43:59;;;;;;;14.95;11.73;;;4.20;99.90;;;;;;5032630;28;20248;-81
2022/11/20 06:46:27;;;;;;;18.45;13.02;;;4.30;99.90;;;;;;5032060;28;20544;-80
2022/11/20 06:48:54;;;;;;;15.68;11.40;;;4.20;99.90;;;;;;5033148;28;20228;-81
2022/11/20 06:51:22;;;;;;;15.23;12.65;;;4.20;99.90;;;;;;5021153;28;20683;-81
2022/11/20 06:53:50;;;;;;;17.60;11.82;;;4.20;99.90;;;;;;5032845;28;20312;-77
2022/11/20 06:56:18;;;;;;;14.70;11.68;;;4.20;99.90;;;;;;5032219;28;20237;-81
2022/11/20 06:58:45;;;;;;;15.40;11.95;;;4.10;99.90;;;;;;5035578;28;20587;-81
2022/11/20 07:01:13;;;;;;;13.05;10.75;;;4.10;99.90;;;;;;5036841;28;20284;-81
2022/11/20 07:03:41;;;;;;;15.38;13.00;;;4.10;99.90;;;;;;5035366;28;20232;-81
2022/11/20 07:06:09;;;;;;;22.75;15.05;;;4.10;99.90;;;;;;5036326;28;20217;-77
2022/11/20 07:08:36;;;;;;;23.23;15.65;;;4.10;99.90;;;;;;5036117;28;20229;-81
2022/11/20 07:11:07;;;;;;;17.75;14.88;;;4.10;99.90;;;;;;5036455;28;20233;-81
2022/11/20 07:13:34;;;;;;;25.77;19.23;;;4.10;99.90;;;;;;5036437;28;20308;-76
2022/11/20 07:16:03;;;;;;;21.42;15.70;;;4.10;99.90;;;;;;5036568;28;20309;-77
2022/11/20 07:18:30;;;;;;;18.50;13.70;;;4.10;99.90;;;;;;5036084;28;20283;-81
2022/11/20 07:20:57;;;;;;;17.20;12.90;;;4.10;99.90;;;;;;5036573;28;20249;-81
2022/11/20 07:23:24;;;;;;;16.88;13.50;;;4.10;99.90;;;;;;5036581;28;20332;-77
2022/11/20 07:25:51;;;;;;;16.15;12.43;;;4.10;99.90;;;;;;5036870;28;20241;-76
2022/11/20 07:28:19;;;;;;;14.10;11.75;;;4.00;99.90;;;;;;5036841;28;20790;-76
2022/11/20 07:30:51;;;;;;;14.23;11.65;;;3.90;99.90;;;;;;5035882;28;20217;-76
2022/11/20 07:33:18;;;;;;;13.23;11.80;;;3.90;99.90;;;;;;5036547;28;20542;-77
2022/11/20 07:35:46;;;;;;;14.25;11.10;;;4.00;99.90;;;;;;5035748;28;20614;-76
2022/11/20 07:38:13;;;;;;;16.30;11.27;;;4.00;99.90;;;;;;5036504;28;20562;-77
2022/11/20 07:40:40;;;;;;;17.58;12.75;;;4.00;99.90;;;;;;5035268;28;20237;-81
2022/11/20 07:43:07;;;;;;;16.55;12.43;;;4.00;99.90;;;;;;5036280;28;20221;-77
2022/11/20 07:45:36;;;;;;;15.25;13.27;;;4.00;99.90;;;;;;5034774;28;20255;-77
2022/11/20 07:48:03;;;;;;;15.65;13.10;;;4.00;99.90;;;;;;5035617;28;20230;-81
2022/11/20 07:50:30;;;;;;;15.10;12.13;;;4.10;99.90;;;;;;5035020;28;20230;-77
2022/11/20 07:53:02;;;;;;;18.75;14.13;;;4.10;99.90;;;;;;5034893;28;20236;-81
2022/11/20 07:55:29;;;;;;;14.35;12.27;;;4.10;99.90;;;;;;5034395;28;20225;-80
2022/11/20 07:57:57;;;;;;;14.52;13.00;;;4.10;99.90;;;;;;5035402;28;20248;-81
2022/11/20 08:00:24;;;;;;;15.60;12.55;;;4.00;99.90;;;;;;5035118;28;20312;-76
2022/11/20 08:02:53;;;;;;;15.90;13.18;;;4.00;99.90;;;;;;5033885;28;20225;-76
2022/11/20 08:05:21;;;;;;;18.35;13.18;;;4.00;99.90;;;;;;5033891;28;20626;-77
2022/11/20 08:07:48;;;;;;;13.95;12.07;;;4.00;99.90;;;;;;5034464;28;20213;-81
2022/11/20 08:10:17;;;;;;;15.90;13.25;;;3.80;99.90;;;;;;5024702;28;20300;-80
2022/11/20 08:15:33;;;;;;;24.20;13.57;;;3.80;99.90;;;;;;5034323;28;20717;-76
2022/11/20 08:18:07;;;;;;;17.35;15.38;;;3.70;99.90;;;;;;5034702;28;20248;-76
2022/11/20 08:20:35;;;;;;;14.73;12.52;;;3.70;99.90;;;;;;5034061;28;20232;-77
2022/11/20 08:23:03;;;;;;;17.25;12.30;;;3.80;99.90;;;;;;5034936;28;20241;-76
2022/11/20 08:25:30;;;;;;;21.88;13.70;;;3.80;99.90;;;;;;5034676;28;20229;-80
2022/11/20 08:27:59;;;;;;;14.80;12.48;;;3.80;99.90;;;;;;5033799;28;20225;-81
2022/11/20 08:30:28;;;;;;;15.85;13.63;;;3.70;99.90;;;;;;5034584;28;20648;-81
2022/11/20 08:32:56;;;;;;;24.10;15.50;;;3.70;99.90;;;;;;5034323;28;20217;-81
2022/11/20 08:35:24;;;;;;;18.83;15.07;;;3.80;99.90;;;;;;5033532;28;20610;-77
2022/11/20 08:37:51;;;;;;;15.05;13.45;;;3.80;99.90;;;;;;5033869;28;20264;-81
2022/11/20 08:40:21;;;;;;;17.50;13.02;;;3.80;99.90;;;;;;5034508;28;20229;-81
2022/11/20 08:42:49;;;;;;;18.70;14.25;;;3.80;99.90;;;;;;5033957;28;20348;-77
2022/11/20 08:45:17;;;;;;;16.92;13.88;;;3.70;99.90;;;;;;5034301;28;20236;-80
2022/11/20 08:47:44;;;;;;;17.15;13.93;;;3.70;99.90;;;;;;5033494;28;20299;-81
2022/11/20 08:50:12;;;;;;;17.60;12.50;;;3.70;99.90;;;;;;5034170;28;20320;-81
2022/11/20 08:52:40;;;;;;;18.92;13.88;;;3.80;99.90;;;;;;5033170;28;20225;-81
2022/11/20 08:55:08;;;;;;;19.67;14.07;;;3.80;99.90;;;;;;5034089;28;20617;-77
2022/11/20 08:57:36;;;;;;;14.95;13.45;;;3.80;99.90;;;;;;5033526;28;20217;-82
2022/11/20 09:00:05;;;;;;;18.02;13.25;;;3.80;99.90;;;;;;5033281;28;20343;-78
2022/11/20 09:02:32;;;;;;;16.48;13.80;;;3.90;99.90;;;;;;5033922;28;20229;-81
2022/11/20 09:05:01;;;;;;;20.30;14.77;;;3.90;99.90;;;;;;5033371;28;20225;-79
2022/11/20 09:07:29;;;;;;;26.23;20.40;;;3.90;99.90;;;;;;5033512;28;20236;-78
2022/11/20 09:09:58;;;;;;;24.65;18.42;;;3.90;99.90;;;;;;5032911;28;20245;-77
2022/11/20 09:12:25;;;;;;;19.33;16.40;;;4.00;99.90;;;;;;5033649;28;20229;-77
2022/11/20 09:14:52;;;;;;;20.45;15.55;;;3.90;99.90;;;;;;5033000;28;20611;-81
2022/11/20 09:17:21;;;;;;;21.80;16.67;;;4.00;99.90;;;;;;5033881;28;20235;-82
2022/11/20 09:19:49;;;;;;;21.10;16.08;;;4.00;99.90;;;;;;5032549;28;20225;-77
2022/11/20 09:22:16;;;;;;;27.85;19.65;;;4.00;99.90;;;;;;5033614;28;20245;-81
2022/11/20 09:24:43;;;;;;;20.20;15.90;;;4.00;99.90;;;;;;5033064;28;20239;-77
2022/11/20 09:27:11;;;;;;;17.52;13.77;;;4.00;99.90;;;;;;5023884;28;20240;-77
2022/11/20 09:29:38;;;;;;;20.33;13.90;;;4.00;99.90;;;;;;5040097;28;20234;-81
2022/11/20 09:32:06;;;;;;;15.00;12.73;;;4.00;99.90;;;;;;5034409;28;20582;-79
2022/11/20 09:34:33;;;;;;;13.40;12.00;;;4.10;99.90;;;;;;5034806;28;20251;-77
2022/11/20 09:37:02;;;;;;;21.10;13.90;;;4.10;99.90;;;;;;5030241;28;20252;-81
2022/11/20 09:39:29;;;;;;;16.63;13.15;;;4.20;99.90;;;;;;5044133;28;20237;-81
2022/11/20 09:42:26;;;;;;;19.60;14.30;;;4.20;99.90;;;;;;5043793;28;20225;-81
2022/11/20 09:45:13;;;;;;;16.52;12.98;;;4.20;99.90;;;;;;5039960;28;20737;-80
2022/11/20 09:47:53;;;;;;;15.93;13.43;;;4.20;99.90;;;;;;5042854;28;20259;-80
2022/11/20 09:50:29;;;;;;;13.95;12.05;;;4.30;99.90;;;;;;5033014;28;20236;-77
2022/11/20 09:53:13;;;;;;;16.08;13.20;;;4.20;99.90;;;;;;5033110;28;20286;-80
2022/11/20 09:55:41;;;;;;;14.20;12.43;;;4.20;99.90;;;;;;5033689;28;20221;-77
2022/11/20 09:58:21;;;;;;;17.48;13.25;;;4.20;99.90;;;;;;5031505;28;20283;-77
2022/11/20 10:00:49;;;;;;;16.80;13.73;;;4.20;99.90;;;;;;5033288;28;20240;-81
2022/11/20 10:03:26;;;;;;;15.85;13.40;;;4.20;99.90;;;;;;5033031;28;20249;-81
2022/11/20 10:05:56;;;;;;;20.55;15.57;;;4.20;99.90;;;;;;5033199;28;20304;-81
2022/11/20 10:08:26;;;;;;;24.95;15.70;;;4.20;99.90;;;;;;5032728;28;20639;-77
2022/11/20 10:11:02;;;;;;;22.30;15.60;;;4.30;99.90;;;;;;5033343;28;20291;-81
2022/11/20 10:13:41;;;;;;;17.50;14.00;;;4.40;99.90;;;;;;5033190;28;20229;-81
2022/11/20 10:16:20;;;;;;;17.48;13.57;;;4.50;99.90;;;;;;5032947;28;20225;-77
2022/11/20 10:18:58;;;;;;;16.77;12.60;;;4.40;99.90;;;;;;5033771;28;20225;-81
2022/11/20 10:21:35;;;;;;;15.95;12.98;;;4.40;99.90;;;;;;5036753;28;20712;-77
2022/11/20 10:24:27;;;;;;;17.35;13.93;;;4.40;99.90;;;;;;5037676;28;20224;-77
2022/11/20 10:27:05;;;;;;;20.85;16.80;;;4.40;99.90;;;;;;5031334;28;20283;-77
2022/11/20 10:29:39;;;;;;;18.48;13.27;;;4.40;99.90;;;;;;5036135;28;20240;-81
2022/11/20 10:32:16;;;;;;;14.80;13.27;;;4.40;99.90;;;;;;5039762;28;21689;-81
2022/11/20 10:34:52;;;;;;;14.30;12.18;;;4.40;99.90;;;;;;5039918;28;20561;-80
2022/11/20 10:37:23;;;;;;;15.63;13.60;;;4.50;99.90;;;;;;5041477;28;20227;-81
2022/11/20 10:39:56;;;;;;;17.35;13.07;;;4.50;99.90;;;;;;5034450;28;20705;-77
2022/11/20 10:42:32;;;;;;;16.58;13.23;;;4.40;99.90;;;;;;5027748;28;20225;-77
2022/11/20 10:45:12;;;;;;;15.07;12.43;;;4.50;99.90;;;;;;5035931;28;20225;-81
2022/11/20 10:47:39;;;;;;;16.52;14.02;;;4.50;99.90;;;;;;5027136;28;20243;-82
2022/11/20 10:50:12;;;;;;;16.50;13.75;;;4.40;99.90;;;;;;5036087;28;20296;-81
2022/11/20 10:52:50;;;;;;;18.45;14.98;;;4.50;99.90;;;;;;5036345;28;20256;-81
2022/11/20 10:55:28;;;;;;;15.48;13.15;;;4.50;99.90;;;;;;5036134;28;20220;-78
2022/11/20 10:58:02;;;;;;;15.00;12.80;;;4.50;99.90;;;;;;5036138;28;20229;-78
2022/11/20 11:00:32;;;;;;;14.07;11.82;;;4.50;99.90;;;;;;5035880;28;20319;-79
2022/11/20 11:03:02;;;;;;;20.73;14.52;;;4.50;99.90;;;;;;5036422;28;20228;-78
2022/11/20 11:05:39;;;;;;;15.85;12.18;;;4.60;99.90;;;;;;5036289;28;20263;-78
2022/11/20 11:11:09;;;;;;;19.92;15.15;;;4.70;99.90;;;;;;5035486;28;20327;-84
2022/11/20 11:13:36;;;;;;;17.45;13.85;;;4.70;99.90;;;;;;5036337;28;20217;-82
2022/11/20 11:16:09;;;;;;;16.70;13.65;;;4.60;99.90;;;;;;5035523;28;20225;-84
2022/11/20 11:18:36;;;;;;;16.25;13.40;;;4.70;99.90;;;;;;5036332;28;20622;-77
2022/11/20 11:21:09;;;;;;;16.30;12.98;;;4.80;99.90;;;;;;5035661;28;20221;-82
2022/11/20 11:23:40;;;;;;;13.90;11.82;;;4.80;99.90;;;;;;5036539;28;20233;-77
2022/11/20 11:26:19;;;;;;;15.55;11.80;;;4.80;99.90;;;;;;5035159;28;20229;-77
2022/11/20 11:28:54;;;;;;;14.05;12.50;;;4.90;99.90;;;;;;5035005;28;20295;-83
2022/11/20 11:31:25;;;;;;;13.23;11.80;;;5.00;99.90;;;;;;5035486;28;20255;-83
2022/11/20 11:33:53;;;;;;;13.10;11.30;;;5.00;99.90;;;;;;5035874;28;20233;-77
2022/11/20 11:36:24;;;;;;;14.13;11.70;;;5.00;99.90;;;;;;5034960;28;20252;-77
2022/11/20 11:38:54;;;;;;;13.30;11.02;;;5.00;99.90;;;;;;5035767;28;20624;-82
2022/11/20 11:41:24;;;;;;;16.02;11.35;;;5.10;99.90;;;;;;5026384;28;20238;-82
2022/11/20 11:46:44;;;;;;;14.98;12.50;;;5.10;99.90;;;;;;5015676;28;20671;-77
2022/11/20 11:49:19;;;;;;;16.58;13.23;;;5.10;99.90;;;;;;5022055;28;20249;-82
2022/11/20 11:52:03;;;;;;;14.70;10.60;;;5.10;99.90;;;;;;5034872;28;20287;-77
2022/11/20 11:54:36;;;;;;;13.48;11.73;;;5.20;99.90;;;;;;5035402;28;20221;-82
2022/11/20 11:57:11;;;;;;;14.98;12.73;;;5.20;99.90;;;;;;5034871;28;20225;-77
2022/11/20 11:59:55;;;;;;;13.73;12.13;;;5.10;99.90;;;;;;5034842;28;20307;-83
2022/11/20 12:02:36;;;;;;;17.73;13.52;;;5.10;99.90;;;;;;5035194;28;20263;-79
2022/11/20 12:05:14;;;;;;;18.90;14.68;;;5.10;99.90;;;;;;5034840;28;20528;-78
2022/11/20 12:07:46;;;;;;;17.70;14.63;;;5.10;99.90;;;;;;5034788;28;20249;-78
2022/11/20 12:10:20;;;;;;;15.05;11.68;;;5.10;99.90;;;;;;5034311;28;20679;-83
2022/11/20 12:12:52;;;;;;;14.18;12.68;;;5.10;99.90;;;;;;5034717;28;20225;-78
2022/11/20 12:15:27;;;;;;;14.23;10.63;;;5.10;99.90;;;;;;5034472;28;20237;-83
2022/11/20 12:17:56;;;;;;;13.77;10.57;;;5.10;99.90;;;;;;5034633;28;20346;-83
2022/11/20 12:20:27;;;;;;;14.45;10.52;;;5.00;99.90;;;;;;5035067;28;20225;-78
2022/11/20 12:23:02;;;;;;;15.63;11.40;;;5.00;99.90;;;;;;5034577;28;20237;-82
2022/11/20 12:25:32;;;;;;;15.25;11.30;;;5.00;99.90;;;;;;5035236;28;20647;-83
2022/11/20 12:28:30;;;;;;;14.30;10.85;;;5.00;99.90;;;;;;5034425;28;20225;-78
2022/11/20 12:31:10;;;;;;;13.15;10.85;;;5.00;99.90;;;;;;5034237;28;20252;-78
2022/11/20 12:34:10;;;;;;;14.15;11.55;;;5.00;99.90;;;;;;5034556;28;20244;-78
2022/11/20 12:36:46;;;;;;;16.80;12.52;;;5.00;99.90;;;;;;5028387;28;20232;-83
2022/11/20 12:39:41;;;;;;;16.83;12.70;;;5.00;99.90;;;;;;5034764;28;20283;-78
2022/11/20 12:45:32;;;;;;;15.10;10.05;;;4.90;99.90;;;;;;5014076;28;20232;-78
2022/11/20 12:48:15;;;;;;;11.68;10.45;;;4.90;99.90;;;;;;5014632;28;20311;-78
2022/11/20 12:50:55;;;;;;;10.88;9.40;;;4.90;99.90;;;;;;5015001;28;20222;-78
2022/11/20 12:53:32;;;;;;;14.02;10.30;;;4.90;99.90;;;;;;5014608;28;20214;-78
2022/11/20 12:56:09;;;;;;;11.73;9.13;;;4.90;99.90;;;;;;5013459;28;20652;-78
2022/11/20 12:58:44;;;;;;;9.82;8.65;;;5.00;99.90;;;;;;5013313;28;20675;-78
2022/11/20 13:04:13;;;;;;;13.85;10.43;;;5.00;99.90;;;;;;5013344;28;20256;-78
2022/11/20 13:06:45;;;;;;;9.60;8.70;;;5.00;99.90;;;;;;5013794;28;20226;-83
2022/11/20 13:09:15;;;;;;;9.43;8.35;;;5.00;99.90;;;;;;5017337;28;20225;-83